AIRPORT METAR

METAR FOR LYBE
ADDS - METARS form results

(1633 UTC 21 November 2019)
Data provider http://aviationweather.gov/metar/data/
 
METAR text: LYBE 211630Z 11016KT CAVOK 13/09 Q1014 NOSIG
Conditions at: LYBE (BELGRADE/SURCIN , CS) observed 1630 UTC 21 November 2019
Temperature: 13.0°C (55°F)
Dewpoint: 9.0°C (48°F) [RH = 77%]
Pressure (altimeter): 29.94 inches Hg (1014.0 mb)
Winds: from the ESE (110 degrees) at 18 MPH (16 knots; 8.2 m/s)
Visibility: 6 or more miles (10+ km)
Ceiling: ceiling and visibility are OK
Clouds: unknown
Weather: no significant weather observed at this time

METAR text: LYBE 211600Z 11014KT CAVOK 13/09 Q1014 NOSIG
Conditions at: LYBE (BELGRADE/SURCIN , CS) observed 1600 UTC 21 November 2019
Temperature: 13.0°C (55°F)
Dewpoint: 9.0°C (48°F) [RH = 77%]
Pressure (altimeter): 29.94 inches Hg (1014.0 mb)
Winds: from the ESE (110 degrees) at 16 MPH (14 knots; 7.2 m/s)
Visibility: 6 or more miles (10+ km)
Ceiling: ceiling and visibility are OK
Clouds: unknown
Weather: no significant weather observed at this time

Forecast for: LYBE (BELGRADE/SURCIN , CS)
Text: TAF LYBE 211100Z 2112/2212 13014KT CAVOK TX18/2112Z TN09/2206Z
Forecast period: 1200 UTC 21 November 2019 to 1200 UTC 22 November 2019
Forecast type: FROM: standard forecast or significant change
Winds: from the SE (130 degrees) at 16 MPH (14 knots; 7.2 m/s)
Visibility: 6 or more miles 10+ km)
Ceiling: unknown
Clouds: missing
Weather: no significant weather forecast for this period
Text: TEMPO 2118/2212 11015G25KT
Forecast period: 1800 UTC 21 November 2019 to 1200 UTC 22 November 2019
Forecast type: TEMPORARY: The following changes expected for less than half the time period
Winds: from the ESE (110 degrees) at 17 MPH (15 knots; 7.7 m/s)
gusting to 29 MPH (25 knots; 12.9 m/s)
Visibility: missing
Ceiling: unknown
Clouds: missing
Weather: no significant weather forecast for this period

AIRPORT MAP

 RUNWAY INFORMATION
Runway 12 Runway length 11155 ft Runway width 148 ft
Runway elevation 318 ft Runway displaced threshold 0 ft Runway heading 122
Runway 30 Runway length 11155 ft Runway width 148 ft
Runway elevation 335 ft Runway displaced threshold 1312 ft Runway heading 302

 AIRPORT FREQUENCIES
Type APP Name APP Frequency 119.1 MHZ
Type ATIS Name INFO Frequency 122.925 MHZ
Type TWR Name TWR Frequency 118.1 MHZ

 AIRPORT NEAR NAVIGATION AIDS
Type VOR-DME Name Beograd Frequency 112300 KHZ
Type NDB Name Beograd Frequency 316 KHZ
Type NDB Name Beograd Frequency 380 KHZ
Type NDB Name Beograd Frequency 355 KHZ



© 2017 - Royal Sky Service, All Right Reserved. | Design & Developed by Davide Torresan